Overview Statistics Trail Chart Weather Telemetry Raw packets
 

This is the latest recevied weather packets stored in our database for station/object K5SVV. If no packets are shown the sender has not sent any weather packets the latest 10 day(s).

<< 53 54 55 56 57 58 59 >>
Time Temp. Humidity Pressure Rain* Wind** Luminosity Snow
1788299627 35.56° C 45% 1012.9 hPa 0 mm - 142 W/m² -
1788299325 35.56° C 45% 1013 hPa 0 mm - 152 W/m² -
1788299019 35.56° C 45% 1013.2 hPa 0 mm - 152 W/m² -
1788298714 35.56° C 45% 1013.1 hPa 0 mm - 138 W/m² -
1788298414 36.11° C 45% 1013 hPa 0 mm - 131 W/m² -
1788298108 37.22° C 44% 1013.1 hPa 0 mm - 131 W/m² -
1788297804 37.78° C 40% 1013.2 hPa 0 mm - 587 W/m² -
1788297500 36.67° C 43% 1012.9 hPa 0 mm - 635 W/m² -
1788297196 36.67° C 43% 1013.2 hPa 0 mm - 216 W/m² -
1788296891 36.11° C 44% 1013.2 hPa 0 mm - 586 W/m² -
1788296587 36.67° C 43% 1013.3 hPa 0 mm - 153 W/m² -
1788296283 36.11° C 44% 1013.5 hPa 0 mm - 653 W/m² -
1788295983 36.67° C 44% 1013.6 hPa 0 mm - 198 W/m² -
1788295678 36.67° C 42% 1013.7 hPa 0 mm - 717 W/m² -
1788295374 35.56° C 45% 1013.5 hPa 0 mm - 707 W/m² -
1788295073 35.56° C 44% 1013.7 hPa 0 mm - 202 W/m² -
1788294768 35.56° C 45% 1013.8 hPa 0 mm - 221 W/m² -
1788294462 35.56° C 45% 1013.4 hPa 0 mm - 230 W/m² -
1788294158 36.11° C 46% 1013.9 hPa 0 mm - 204 W/m² -
1788293853 35.56° C 46% 1013.7 hPa 0 mm - 208 W/m² -
1788293552 35.56° C 46% 1014.1 hPa 0 mm - 210 W/m² -
1788293247 35.56° C 47% 1014.1 hPa 0 mm - 165 W/m² -
1788292942 36.11° C 45% 1013.9 hPa 0 mm - 151 W/m² -
1788292639 35.56° C 46% 1014.1 hPa 0 mm - 753 W/m² -
1788292334 35.56° C 45% 1013.9 hPa 0 mm - 185 W/m² -

* Rain latest hour (hover to see other rain measurements)
** Current wind speed in m/s (hover to see current wind gust speed)